Aviation Digital Data Service (ADDS)

Output produced by METARs form (0943 UTC 26 April 2015)
found at http://aviationweather.gov/adds/metars/
 
KHUL 260523Z 2606/2706 32003KT P6SM OVC070 
     FM260800 32004KT P6SM BKN008 
     FM261400 35004KT P6SM SCT025 BKN040